sensor_id;sensor_type;location;lat;lon;timestamp;P1;durP1;ratioP1;P2;durP2;ratioP2
62543;SDS011;48597;49.030;1.822;2022-07-29T00:00:25;1.83;;;1.38;;
62543;SDS011;48597;49.030;1.822;2022-07-29T00:02:51;1.50;;;1.40;;
62543;SDS011;48597;49.030;1.822;2022-07-29T00:05:17;1.55;;;1.30;;
62543;SDS011;48597;49.030;1.822;2022-07-29T00:07:42;1.33;;;1.20;;
62543;SDS011;48597;49.030;1.822;2022-07-29T00:10:07;1.50;;;1.17;;
62543;SDS011;48597;49.030;1.822;2022-07-29T00:12:33;1.50;;;1.30;;
62543;SDS011;48597;49.030;1.822;2022-07-29T00:14:58;1.58;;;1.30;;
62543;SDS011;48597;49.030;1.822;2022-07-29T00:17:24;2.10;;;1.30;;
62543;SDS011;48597;49.030;1.822;2022-07-29T00:19:50;1.85;;;1.40;;
62543;SDS011;48597;49.030;1.822;2022-07-29T00:22:15;1.40;;;1.30;;
62543;SDS011;48597;49.030;1.822;2022-07-29T00:24:40;1.50;;;1.13;;
62543;SDS011;48597;49.030;1.822;2022-07-29T00:27:06;1.50;;;1.23;;
62543;SDS011;48597;49.030;1.822;2022-07-29T00:29:31;1.95;;;1.30;;
62543;SDS011;48597;49.030;1.822;2022-07-29T00:31:57;1.73;;;1.30;;
62543;SDS011;48597;49.030;1.822;2022-07-29T00:34:23;1.30;;;1.20;;
62543;SDS011;48597;49.030;1.822;2022-07-29T00:37:07;1.55;;;1.20;;
62543;SDS011;48597;49.030;1.822;2022-07-29T00:39:32;1.50;;;1.30;;
62543;SDS011;48597;49.030;1.822;2022-07-29T00:41:58;1.60;;;1.30;;
62543;SDS011;48597;49.030;1.822;2022-07-29T00:44:23;1.30;;;1.20;;
62543;SDS011;48597;49.030;1.822;2022-07-29T00:46:49;1.42;;;1.33;;
62543;SDS011;48597;49.030;1.822;2022-07-29T00:49:14;1.75;;;1.20;;
62543;SDS011;48597;49.030;1.822;2022-07-29T00:51:39;1.42;;;1.20;;
62543;SDS011;48597;49.030;1.822;2022-07-29T00:54:05;1.42;;;1.20;;
62543;SDS011;48597;49.030;1.822;2022-07-29T00:56:32;1.30;;;1.20;;
62543;SDS011;48597;49.030;1.822;2022-07-29T00:58:58;1.20;;;1.10;;
62543;SDS011;48597;49.030;1.822;2022-07-29T01:01:24;1.40;;;1.30;;
62543;SDS011;48597;49.030;1.822;2022-07-29T01:03:50;1.30;;;1.20;;
62543;SDS011;48597;49.030;1.822;2022-07-29T01:06:16;1.10;;;1.00;;
62543;SDS011;48597;49.030;1.822;2022-07-29T01:08:43;1.80;;;1.27;;
62543;SDS011;48597;49.030;1.822;2022-07-29T01:11:09;1.25;;;1.15;;
62543;SDS011;48597;49.030;1.822;2022-07-29T01:13:35;1.20;;;1.10;;
62543;SDS011;48597;49.030;1.822;2022-07-29T01:16:03;1.35;;;1.10;;
62543;SDS011;48597;49.030;1.822;2022-07-29T01:18:41;1.20;;;1.13;;
62543;SDS011;48597;49.030;1.822;2022-07-29T01:31:48;1.30;;;1.20;;
62543;SDS011;48597;49.030;1.822;2022-07-29T01:34:21;1.30;;;1.20;;
62543;SDS011;48597;49.030;1.822;2022-07-29T01:36:51;1.60;;;1.13;;
62543;SDS011;48597;49.030;1.822;2022-07-29T01:39:30;1.23;;;1.10;;
62543;SDS011;48597;49.030;1.822;2022-07-29T01:44:33;1.15;;;1.05;;
62543;SDS011;48597;49.030;1.822;2022-07-29T01:47:05;1.10;;;1.10;;
62543;SDS011;48597;49.030;1.822;2022-07-29T01:49:36;1.30;;;1.13;;
62543;SDS011;48597;49.030;1.822;2022-07-29T01:52:10;1.63;;;1.20;;
62543;SDS011;48597;49.030;1.822;2022-07-29T01:54:45;1.30;;;1.20;;
62543;SDS011;48597;49.030;1.822;2022-07-29T01:57:16;1.33;;;1.10;;
62543;SDS011;48597;49.030;1.822;2022-07-29T01:59:45;2.25;;;1.20;;
62543;SDS011;48597;49.030;1.822;2022-07-29T02:02:14;1.88;;;1.25;;
62543;SDS011;48597;49.030;1.822;2022-07-29T02:04:41;1.58;;;1.10;;
62543;SDS011;48597;49.030;1.822;2022-07-29T02:07:10;1.20;;;1.10;;
62543;SDS011;48597;49.030;1.822;2022-07-29T02:09:40;1.10;;;1.00;;
62543;SDS011;48597;49.030;1.822;2022-07-29T02:12:07;1.17;;;1.08;;
62543;SDS011;48597;49.030;1.822;2022-07-29T02:14:36;1.10;;;1.00;;
62543;SDS011;48597;49.030;1.822;2022-07-29T02:17:05;1.65;;;1.10;;
62543;SDS011;48597;49.030;1.822;2022-07-29T02:19:31;1.35;;;1.20;;
62543;SDS011;48597;49.030;1.822;2022-07-29T02:21:58;1.42;;;1.10;;
62543;SDS011;48597;49.030;1.822;2022-07-29T02:24:25;1.25;;;1.00;;
62543;SDS011;48597;49.030;1.822;2022-07-29T02:26:53;1.55;;;1.10;;
62543;SDS011;48597;49.030;1.822;2022-07-29T02:29:21;1.52;;;1.10;;
62543;SDS011;48597;49.030;1.822;2022-07-29T02:31:48;1.30;;;1.20;;
62543;SDS011;48597;49.030;1.822;2022-07-29T02:34:15;1.30;;;1.08;;
62543;SDS011;48597;49.030;1.822;2022-07-29T02:36:43;1.17;;;1.08;;
62543;SDS011;48597;49.030;1.822;2022-07-29T02:39:10;0.90;;;0.90;;
62543;SDS011;48597;49.030;1.822;2022-07-29T02:41:38;1.50;;;1.10;;
62543;SDS011;48597;49.030;1.822;2022-07-29T02:44:11;1.20;;;1.10;;
62543;SDS011;48597;49.030;1.822;2022-07-29T02:46:45;1.20;;;1.10;;
62543;SDS011;48597;49.030;1.822;2022-07-29T02:49:18;1.10;;;1.00;;
62543;SDS011;48597;49.030;1.822;2022-07-29T02:52:04;1.23;;;1.10;;
62543;SDS011;48597;49.030;1.822;2022-07-29T02:54:37;1.10;;;1.00;;
62543;SDS011;48597;49.030;1.822;2022-07-29T02:57:09;1.45;;;1.08;;
62543;SDS011;48597;49.030;1.822;2022-07-29T02:59:40;1.20;;;1.10;;
62543;SDS011;48597;49.030;1.822;2022-07-29T03:02:07;0.98;;;0.90;;
62543;SDS011;48597;49.030;1.822;2022-07-29T03:04:34;1.20;;;1.00;;
62543;SDS011;48597;49.030;1.822;2022-07-29T03:07:01;1.10;;;1.00;;
62543;SDS011;48597;49.030;1.822;2022-07-29T03:09:28;1.30;;;1.10;;
62543;SDS011;48597;49.030;1.822;2022-07-29T03:11:55;1.45;;;1.10;;
62543;SDS011;48597;49.030;1.822;2022-07-29T03:14:21;2.15;;;1.17;;
62543;SDS011;48597;49.030;1.822;2022-07-29T03:16:48;1.10;;;1.00;;
62543;SDS011;48597;49.030;1.822;2022-07-29T03:19:14;0.90;;;0.90;;
62543;SDS011;48597;49.030;1.822;2022-07-29T03:21:39;1.20;;;1.10;;
62543;SDS011;48597;49.030;1.822;2022-07-29T03:24:05;0.95;;;0.95;;
62543;SDS011;48597;49.030;1.822;2022-07-29T03:26:31;1.30;;;1.08;;
62543;SDS011;48597;49.030;1.822;2022-07-29T03:28:56;1.23;;;1.13;;
62543;SDS011;48597;49.030;1.822;2022-07-29T03:31:21;1.00;;;0.90;;
62543;SDS011;48597;49.030;1.822;2022-07-29T03:33:47;1.30;;;1.20;;
62543;SDS011;48597;49.030;1.822;2022-07-29T03:36:12;0.90;;;0.90;;
62543;SDS011;48597;49.030;1.822;2022-07-29T03:38:38;1.40;;;0.85;;
62543;SDS011;48597;49.030;1.822;2022-07-29T03:41:08;1.02;;;0.93;;
62543;SDS011;48597;49.030;1.822;2022-07-29T03:43:36;1.48;;;1.00;;
62543;SDS011;48597;49.030;1.822;2022-07-29T03:46:05;1.42;;;0.95;;
62543;SDS011;48597;49.030;1.822;2022-07-29T03:48:32;1.13;;;1.00;;
62543;SDS011;48597;49.030;1.822;2022-07-29T03:51:01;1.02;;;0.93;;
62543;SDS011;48597;49.030;1.822;2022-07-29T03:53:27;1.05;;;1.00;;
62543;SDS011;48597;49.030;1.822;2022-07-29T03:55:54;1.10;;;1.00;;
62543;SDS011;48597;49.030;1.822;2022-07-29T03:58:24;0.90;;;0.90;;
62543;SDS011;48597;49.030;1.822;2022-07-29T04:00:51;1.10;;;1.00;;
62543;SDS011;48597;49.030;1.822;2022-07-29T04:03:18;1.00;;;0.90;;
62543;SDS011;48597;49.030;1.822;2022-07-29T04:05:44;0.93;;;0.93;;
62543;SDS011;48597;49.030;1.822;2022-07-29T04:08:09;1.20;;;1.10;;
62543;SDS011;48597;49.030;1.822;2022-07-29T04:10:35;0.93;;;0.77;;
62543;SDS011;48597;49.030;1.822;2022-07-29T04:13:01;1.10;;;1.00;;
62543;SDS011;48597;49.030;1.822;2022-07-29T04:15:27;2.10;;;1.02;;
62543;SDS011;48597;49.030;1.822;2022-07-29T04:17:53;1.10;;;1.00;;
62543;SDS011;48597;49.030;1.822;2022-07-29T04:20:19;0.90;;;0.90;;
62543;SDS011;48597;49.030;1.822;2022-07-29T04:22:44;0.80;;;0.80;;
62543;SDS011;48597;49.030;1.822;2022-07-29T04:25:09;1.42;;;0.90;;
62543;SDS011;48597;49.030;1.822;2022-07-29T04:27:35;0.82;;;0.82;;
62543;SDS011;48597;49.030;1.822;2022-07-29T04:30:01;1.00;;;1.00;;
62543;SDS011;48597;49.030;1.822;2022-07-29T04:32:27;1.67;;;0.95;;
62543;SDS011;48597;49.030;1.822;2022-07-29T04:34:53;0.98;;;0.88;;
62543;SDS011;48597;49.030;1.822;2022-07-29T04:37:18;0.90;;;0.90;;
62543;SDS011;48597;49.030;1.822;2022-07-29T04:39:43;1.98;;;1.00;;
62543;SDS011;48597;49.030;1.822;2022-07-29T04:42:09;0.80;;;0.80;;
62543;SDS011;48597;49.030;1.822;2022-07-29T04:44:34;0.90;;;0.90;;
62543;SDS011;48597;49.030;1.822;2022-07-29T04:46:59;1.05;;;0.95;;
62543;SDS011;48597;49.030;1.822;2022-07-29T04:49:25;1.00;;;1.00;;
62543;SDS011;48597;49.030;1.822;2022-07-29T04:51:50;0.90;;;0.90;;
62543;SDS011;48597;49.030;1.822;2022-07-29T04:54:16;0.88;;;0.88;;
62543;SDS011;48597;49.030;1.822;2022-07-29T04:56:41;1.70;;;1.05;;
62543;SDS011;48597;49.030;1.822;2022-07-29T04:59:06;1.02;;;1.02;;
62543;SDS011;48597;49.030;1.822;2022-07-29T05:01:32;0.90;;;0.90;;
62543;SDS011;48597;49.030;1.822;2022-07-29T05:03:57;1.10;;;1.00;;
62543;SDS011;48597;49.030;1.822;2022-07-29T05:06:22;0.85;;;0.85;;
62543;SDS011;48597;49.030;1.822;2022-07-29T05:08:48;0.73;;;0.70;;
62543;SDS011;48597;49.030;1.822;2022-07-29T05:11:13;0.95;;;0.93;;
62543;SDS011;48597;49.030;1.822;2022-07-29T05:13:39;0.80;;;0.80;;
62543;SDS011;48597;49.030;1.822;2022-07-29T05:16:04;0.90;;;0.90;;
62543;SDS011;48597;49.030;1.822;2022-07-29T05:18:30;0.80;;;0.80;;
62543;SDS011;48597;49.030;1.822;2022-07-29T05:20:55;1.83;;;1.00;;
62543;SDS011;48597;49.030;1.822;2022-07-29T05:23:21;1.00;;;1.00;;
62543;SDS011;48597;49.030;1.822;2022-07-29T05:25:46;1.10;;;1.00;;
62543;SDS011;48597;49.030;1.822;2022-07-29T05:28:11;0.90;;;0.90;;
62543;SDS011;48597;49.030;1.822;2022-07-29T05:30:37;0.90;;;0.90;;
62543;SDS011;48597;49.030;1.822;2022-07-29T05:33:03;1.00;;;1.00;;
62543;SDS011;48597;49.030;1.822;2022-07-29T05:35:28;0.90;;;0.90;;
62543;SDS011;48597;49.030;1.822;2022-07-29T05:37:53;0.80;;;0.80;;
62543;SDS011;48597;49.030;1.822;2022-07-29T05:40:19;0.70;;;0.70;;
62543;SDS011;48597;49.030;1.822;2022-07-29T05:42:45;0.80;;;0.80;;
62543;SDS011;48597;49.030;1.822;2022-07-29T05:45:10;0.80;;;0.80;;
62543;SDS011;48597;49.030;1.822;2022-07-29T05:47:35;0.90;;;0.90;;
62543;SDS011;48597;49.030;1.822;2022-07-29T05:50:01;1.05;;;1.00;;
62543;SDS011;48597;49.030;1.822;2022-07-29T05:52:26;0.98;;;0.98;;
62543;SDS011;48597;49.030;1.822;2022-07-29T05:54:52;1.10;;;1.00;;
62543;SDS011;48597;49.030;1.822;2022-07-29T05:57:18;1.00;;;0.90;;
62543;SDS011;48597;49.030;1.822;2022-07-29T05:59:44;0.80;;;0.80;;
62543;SDS011;48597;49.030;1.822;2022-07-29T06:02:09;0.93;;;0.93;;
62543;SDS011;48597;49.030;1.822;2022-07-29T06:04:35;1.00;;;1.00;;
62543;SDS011;48597;49.030;1.822;2022-07-29T06:07:00;1.10;;;1.00;;
62543;SDS011;48597;49.030;1.822;2022-07-29T06:09:26;0.90;;;0.90;;
62543;SDS011;48597;49.030;1.822;2022-07-29T06:11:52;0.90;;;0.90;;
62543;SDS011;48597;49.030;1.822;2022-07-29T06:14:17;1.23;;;1.00;;
62543;SDS011;48597;49.030;1.822;2022-07-29T06:16:44;0.80;;;0.80;;
62543;SDS011;48597;49.030;1.822;2022-07-29T06:19:09;0.77;;;0.77;;
62543;SDS011;48597;49.030;1.822;2022-07-29T06:21:35;0.90;;;0.90;;
62543;SDS011;48597;49.030;1.822;2022-07-29T06:24:00;1.00;;;1.00;;
62543;SDS011;48597;49.030;1.822;2022-07-29T06:26:25;1.27;;;0.90;;
62543;SDS011;48597;49.030;1.822;2022-07-29T06:28:51;1.00;;;0.93;;
62543;SDS011;48597;49.030;1.822;2022-07-29T06:31:16;1.02;;;0.93;;
62543;SDS011;48597;49.030;1.822;2022-07-29T06:33:42;0.90;;;0.90;;
62543;SDS011;48597;49.030;1.822;2022-07-29T06:36:07;1.15;;;0.98;;
62543;SDS011;48597;49.030;1.822;2022-07-29T06:38:33;1.00;;;0.98;;
62543;SDS011;48597;49.030;1.822;2022-07-29T06:40:58;0.90;;;0.90;;
62543;SDS011;48597;49.030;1.822;2022-07-29T06:43:24;0.95;;;0.95;;
62543;SDS011;48597;49.030;1.822;2022-07-29T06:45:51;0.90;;;0.90;;
62543;SDS011;48597;49.030;1.822;2022-07-29T06:48:16;1.00;;;1.00;;
62543;SDS011;48597;49.030;1.822;2022-07-29T06:50:42;0.82;;;0.82;;
62543;SDS011;48597;49.030;1.822;2022-07-29T06:53:07;0.90;;;0.90;;
62543;SDS011;48597;49.030;1.822;2022-07-29T06:55:32;0.90;;;0.90;;
62543;SDS011;48597;49.030;1.822;2022-07-29T06:57:58;1.00;;;0.90;;
62543;SDS011;48597;49.030;1.822;2022-07-29T07:00:23;1.00;;;1.00;;
62543;SDS011;48597;49.030;1.822;2022-07-29T07:02:49;1.73;;;1.10;;
62543;SDS011;48597;49.030;1.822;2022-07-29T07:05:14;0.70;;;0.70;;
62543;SDS011;48597;49.030;1.822;2022-07-29T07:07:39;0.80;;;0.80;;
62543;SDS011;48597;49.030;1.822;2022-07-29T07:10:05;1.00;;;1.00;;
62543;SDS011;48597;49.030;1.822;2022-07-29T07:12:31;0.90;;;0.90;;
62543;SDS011;48597;49.030;1.822;2022-07-29T07:14:56;1.08;;;1.08;;
62543;SDS011;48597;49.030;1.822;2022-07-29T07:17:21;0.90;;;0.90;;
62543;SDS011;48597;49.030;1.822;2022-07-29T07:19:46;1.00;;;0.90;;
62543;SDS011;48597;49.030;1.822;2022-07-29T07:22:12;0.93;;;0.93;;
62543;SDS011;48597;49.030;1.822;2022-07-29T07:24:37;0.80;;;0.80;;
62543;SDS011;48597;49.030;1.822;2022-07-29T07:27:02;1.00;;;1.00;;
62543;SDS011;48597;49.030;1.822;2022-07-29T07:29:28;0.80;;;0.80;;
62543;SDS011;48597;49.030;1.822;2022-07-29T07:31:53;1.00;;;1.00;;
62543;SDS011;48597;49.030;1.822;2022-07-29T07:34:20;1.10;;;0.98;;
62543;SDS011;48597;49.030;1.822;2022-07-29T07:36:45;0.90;;;0.90;;
62543;SDS011;48597;49.030;1.822;2022-07-29T07:39:10;1.15;;;0.90;;
62543;SDS011;48597;49.030;1.822;2022-07-29T07:41:36;1.10;;;1.10;;
62543;SDS011;48597;49.030;1.822;2022-07-29T07:44:01;0.90;;;0.90;;
62543;SDS011;48597;49.030;1.822;2022-07-29T07:46:26;0.77;;;0.77;;
62543;SDS011;48597;49.030;1.822;2022-07-29T07:48:52;0.80;;;0.80;;
62543;SDS011;48597;49.030;1.822;2022-07-29T07:51:17;1.00;;;0.90;;
62543;SDS011;48597;49.030;1.822;2022-07-29T07:53:43;0.85;;;0.85;;
62543;SDS011;48597;49.030;1.822;2022-07-29T07:56:09;1.20;;;1.10;;
62543;SDS011;48597;49.030;1.822;2022-07-29T07:58:35;0.90;;;0.90;;
62543;SDS011;48597;49.030;1.822;2022-07-29T08:01:01;1.00;;;0.90;;
62543;SDS011;48597;49.030;1.822;2022-07-29T08:03:26;0.80;;;0.80;;
62543;SDS011;48597;49.030;1.822;2022-07-29T08:05:52;1.23;;;1.05;;
62543;SDS011;48597;49.030;1.822;2022-07-29T08:08:19;1.10;;;1.00;;
62543;SDS011;48597;49.030;1.822;2022-07-29T08:10:44;0.90;;;0.90;;
62543;SDS011;48597;49.030;1.822;2022-07-29T08:13:20;1.10;;;1.00;;
62543;SDS011;48597;49.030;1.822;2022-07-29T08:15:47;0.88;;;0.88;;
62543;SDS011;48597;49.030;1.822;2022-07-29T08:18:22;0.80;;;0.80;;
62543;SDS011;48597;49.030;1.822;2022-07-29T08:20:47;0.80;;;0.80;;
62543;SDS011;48597;49.030;1.822;2022-07-29T08:23:13;0.82;;;0.82;;
62543;SDS011;48597;49.030;1.822;2022-07-29T08:25:38;1.10;;;0.90;;
62543;SDS011;48597;49.030;1.822;2022-07-29T08:28:04;1.17;;;1.00;;
62543;SDS011;48597;49.030;1.822;2022-07-29T08:30:30;1.20;;;1.10;;
62543;SDS011;48597;49.030;1.822;2022-07-29T08:32:57;1.10;;;1.00;;
62543;SDS011;48597;49.030;1.822;2022-07-29T08:35:22;1.10;;;1.00;;
62543;SDS011;48597;49.030;1.822;2022-07-29T08:37:48;0.90;;;0.90;;
62543;SDS011;48597;49.030;1.822;2022-07-29T08:40:14;0.93;;;0.93;;
62543;SDS011;48597;49.030;1.822;2022-07-29T08:42:40;1.17;;;1.00;;
62543;SDS011;48597;49.030;1.822;2022-07-29T08:45:05;1.00;;;0.90;;
62543;SDS011;48597;49.030;1.822;2022-07-29T08:47:31;0.80;;;0.80;;
62543;SDS011;48597;49.030;1.822;2022-07-29T08:49:58;1.10;;;1.00;;
62543;SDS011;48597;49.030;1.822;2022-07-29T08:52:26;0.90;;;0.90;;
62543;SDS011;48597;49.030;1.822;2022-07-29T08:57:20;1.00;;;0.90;;
62543;SDS011;48597;49.030;1.822;2022-07-29T08:59:47;0.90;;;0.90;;
62543;SDS011;48597;49.030;1.822;2022-07-29T09:02:17;0.80;;;0.80;;
62543;SDS011;48597;49.030;1.822;2022-07-29T09:04:45;1.00;;;1.00;;
62543;SDS011;48597;49.030;1.822;2022-07-29T09:07:11;0.88;;;0.88;;
62543;SDS011;48597;49.030;1.822;2022-07-29T09:09:39;0.82;;;0.82;;
62543;SDS011;48597;49.030;1.822;2022-07-29T09:12:05;0.98;;;0.98;;
62543;SDS011;48597;49.030;1.822;2022-07-29T09:14:33;0.90;;;0.90;;
62543;SDS011;48597;49.030;1.822;2022-07-29T09:16:58;1.02;;;0.90;;
62543;SDS011;48597;49.030;1.822;2022-07-29T09:19:28;0.95;;;0.90;;
62543;SDS011;48597;49.030;1.822;2022-07-29T09:21:58;0.90;;;0.90;;
62543;SDS011;48597;49.030;1.822;2022-07-29T09:24:26;0.85;;;0.85;;
62543;SDS011;48597;49.030;1.822;2022-07-29T09:26:52;0.90;;;0.90;;
62543;SDS011;48597;49.030;1.822;2022-07-29T09:29:18;0.88;;;0.88;;
62543;SDS011;48597;49.030;1.822;2022-07-29T09:31:46;1.08;;;1.00;;
62543;SDS011;48597;49.030;1.822;2022-07-29T09:34:14;1.20;;;1.10;;
62543;SDS011;48597;49.030;1.822;2022-07-29T09:36:45;0.90;;;0.90;;
62543;SDS011;48597;49.030;1.822;2022-07-29T09:39:12;1.17;;;1.08;;
62543;SDS011;48597;49.030;1.822;2022-07-29T09:41:49;0.95;;;0.95;;
62543;SDS011;48597;49.030;1.822;2022-07-29T09:44:20;0.90;;;0.90;;
62543;SDS011;48597;49.030;1.822;2022-07-29T09:46:53;1.00;;;1.00;;
62543;SDS011;48597;49.030;1.822;2022-07-29T09:49:22;0.90;;;0.90;;
62543;SDS011;48597;49.030;1.822;2022-07-29T09:51:47;0.85;;;0.85;;
62543;SDS011;48597;49.030;1.822;2022-07-29T09:54:27;0.90;;;0.90;;
62543;SDS011;48597;49.030;1.822;2022-07-29T09:56:53;0.93;;;0.90;;
62543;SDS011;48597;49.030;1.822;2022-07-29T09:59:20;0.90;;;0.90;;
62543;SDS011;48597;49.030;1.822;2022-07-29T10:01:49;0.75;;;0.70;;
62543;SDS011;48597;49.030;1.822;2022-07-29T10:04:15;1.10;;;0.80;;
62543;SDS011;48597;49.030;1.822;2022-07-29T10:06:59;0.82;;;0.82;;
62543;SDS011;48597;49.030;1.822;2022-07-29T10:09:26;0.90;;;0.90;;
62543;SDS011;48597;49.030;1.822;2022-07-29T10:12:10;0.90;;;0.90;;
62543;SDS011;48597;49.030;1.822;2022-07-29T10:14:39;0.82;;;0.82;;
62543;SDS011;48597;49.030;1.822;2022-07-29T10:17:06;1.20;;;1.10;;
62543;SDS011;48597;49.030;1.822;2022-07-29T10:19:34;1.20;;;1.10;;
62543;SDS011;48597;49.030;1.822;2022-07-29T10:22:06;1.00;;;1.00;;
62543;SDS011;48597;49.030;1.822;2022-07-29T10:24:36;1.13;;;1.00;;
62543;SDS011;48597;49.030;1.822;2022-07-29T10:27:04;1.30;;;1.20;;
62543;SDS011;48597;49.030;1.822;2022-07-29T10:29:30;1.00;;;1.00;;
62543;SDS011;48597;49.030;1.822;2022-07-29T10:37:28;1.10;;;0.93;;
62543;SDS011;48597;49.030;1.822;2022-07-29T10:42:53;0.90;;;0.90;;
62543;SDS011;48597;49.030;1.822;2022-07-29T10:45:20;1.00;;;1.00;;
62543;SDS011;48597;49.030;1.822;2022-07-29T10:47:46;0.90;;;0.90;;
62543;SDS011;48597;49.030;1.822;2022-07-29T10:50:11;0.90;;;0.90;;
62543;SDS011;48597;49.030;1.822;2022-07-29T10:55:30;1.63;;;1.10;;
62543;SDS011;48597;49.030;1.822;2022-07-29T11:00:51;1.00;;;0.90;;
62543;SDS011;48597;49.030;1.822;2022-07-29T11:06:14;0.93;;;0.93;;
62543;SDS011;48597;49.030;1.822;2022-07-29T11:08:40;1.00;;;1.00;;
62543;SDS011;48597;49.030;1.822;2022-07-29T11:16:13;0.88;;;0.88;;
62543;SDS011;48597;49.030;1.822;2022-07-29T11:21:36;1.20;;;1.10;;
62543;SDS011;48597;49.030;1.822;2022-07-29T11:24:16;0.95;;;0.90;;
62543;SDS011;48597;49.030;1.822;2022-07-29T11:26:45;1.10;;;1.10;;
62543;SDS011;48597;49.030;1.822;2022-07-29T11:29:35;1.15;;;0.93;;
62543;SDS011;48597;49.030;1.822;2022-07-29T11:32:28;0.93;;;0.93;;
62543;SDS011;48597;49.030;1.822;2022-07-29T11:35:34;0.80;;;0.80;;
62543;SDS011;48597;49.030;1.822;2022-07-29T11:43:51;0.90;;;0.90;;
62543;SDS011;48597;49.030;1.822;2022-07-29T11:46:41;1.10;;;1.00;;
62543;SDS011;48597;49.030;1.822;2022-07-29T11:49:11;1.13;;;1.02;;
62543;SDS011;48597;49.030;1.822;2022-07-29T11:51:37;0.90;;;0.90;;
62543;SDS011;48597;49.030;1.822;2022-07-29T11:54:03;1.10;;;1.00;;
62543;SDS011;48597;49.030;1.822;2022-07-29T11:56:33;1.10;;;1.00;;
62543;SDS011;48597;49.030;1.822;2022-07-29T11:59:04;0.90;;;0.90;;
62543;SDS011;48597;49.030;1.822;2022-07-29T12:01:31;0.82;;;0.82;;
62543;SDS011;48597;49.030;1.822;2022-07-29T12:04:06;0.90;;;0.90;;
62543;SDS011;48597;49.030;1.822;2022-07-29T12:06:35;1.02;;;0.90;;
62543;SDS011;48597;49.030;1.822;2022-07-29T12:09:00;1.17;;;1.00;;
62543;SDS011;48597;49.030;1.822;2022-07-29T12:11:32;0.90;;;0.90;;
62543;SDS011;48597;49.030;1.822;2022-07-29T12:13:58;0.90;;;0.90;;
62543;SDS011;48597;49.030;1.822;2022-07-29T12:16:23;0.82;;;0.82;;
62543;SDS011;48597;49.030;1.822;2022-07-29T12:19:00;0.85;;;0.85;;
62543;SDS011;48597;49.030;1.822;2022-07-29T12:21:27;0.77;;;0.77;;
62543;SDS011;48597;49.030;1.822;2022-07-29T12:23:54;0.80;;;0.80;;
62543;SDS011;48597;49.030;1.822;2022-07-29T12:26:20;0.93;;;0.93;;
62543;SDS011;48597;49.030;1.822;2022-07-29T12:28:46;1.00;;;1.00;;
62543;SDS011;48597;49.030;1.822;2022-07-29T12:31:14;0.90;;;0.90;;
62543;SDS011;48597;49.030;1.822;2022-07-29T12:33:40;0.90;;;0.90;;
62543;SDS011;48597;49.030;1.822;2022-07-29T12:36:06;0.95;;;0.95;;
62543;SDS011;48597;49.030;1.822;2022-07-29T12:38:33;0.90;;;0.90;;
62543;SDS011;48597;49.030;1.822;2022-07-29T12:40:59;0.90;;;0.90;;
62543;SDS011;48597;49.030;1.822;2022-07-29T12:43:25;1.20;;;0.90;;
62543;SDS011;48597;49.030;1.822;2022-07-29T12:45:52;1.00;;;0.90;;
62543;SDS011;48597;49.030;1.822;2022-07-29T12:48:32;0.90;;;0.85;;
62543;SDS011;48597;49.030;1.822;2022-07-29T12:51:02;0.90;;;0.90;;
62543;SDS011;48597;49.030;1.822;2022-07-29T12:53:29;1.08;;;1.00;;
62543;SDS011;48597;49.030;1.822;2022-07-29T12:55:56;0.80;;;0.80;;
62543;SDS011;48597;49.030;1.822;2022-07-29T12:58:34;0.80;;;0.80;;
62543;SDS011;48597;49.030;1.822;2022-07-29T13:01:12;0.80;;;0.80;;
62543;SDS011;48597;49.030;1.822;2022-07-29T13:06:42;1.63;;;0.80;;
62543;SDS011;48597;49.030;1.822;2022-07-29T13:11:51;0.90;;;0.90;;
62543;SDS011;48597;49.030;1.822;2022-07-29T13:14:31;0.88;;;0.88;;
62543;SDS011;48597;49.030;1.822;2022-07-29T13:17:05;1.10;;;1.00;;
62543;SDS011;48597;49.030;1.822;2022-07-29T13:19:42;0.98;;;0.98;;
62543;SDS011;48597;49.030;1.822;2022-07-29T13:22:15;0.80;;;0.80;;
62543;SDS011;48597;49.030;1.822;2022-07-29T13:27:19;0.90;;;0.90;;
62543;SDS011;48597;49.030;1.822;2022-07-29T13:29:46;0.80;;;0.80;;
62543;SDS011;48597;49.030;1.822;2022-07-29T13:32:12;0.80;;;0.80;;
62543;SDS011;48597;49.030;1.822;2022-07-29T13:34:38;0.80;;;0.80;;
62543;SDS011;48597;49.030;1.822;2022-07-29T13:37:03;0.90;;;0.90;;
62543;SDS011;48597;49.030;1.822;2022-07-29T13:39:29;1.10;;;0.90;;
62543;SDS011;48597;49.030;1.822;2022-07-29T13:41:55;1.08;;;1.00;;
62543;SDS011;48597;49.030;1.822;2022-07-29T13:44:20;0.82;;;0.82;;
62543;SDS011;48597;49.030;1.822;2022-07-29T13:46:46;0.88;;;0.88;;
62543;SDS011;48597;49.030;1.822;2022-07-29T13:49:11;0.88;;;0.88;;
62543;SDS011;48597;49.030;1.822;2022-07-29T13:51:37;1.00;;;0.90;;
62543;SDS011;48597;49.030;1.822;2022-07-29T13:54:03;0.82;;;0.80;;
62543;SDS011;48597;49.030;1.822;2022-07-29T13:56:28;1.00;;;0.90;;
62543;SDS011;48597;49.030;1.822;2022-07-29T13:58:53;0.90;;;0.90;;
62543;SDS011;48597;49.030;1.822;2022-07-29T14:01:19;1.08;;;1.08;;
62543;SDS011;48597;49.030;1.822;2022-07-29T14:03:44;0.80;;;0.80;;
62543;SDS011;48597;49.030;1.822;2022-07-29T14:06:09;0.90;;;0.90;;
62543;SDS011;48597;49.030;1.822;2022-07-29T14:08:35;1.10;;;1.00;;
62543;SDS011;48597;49.030;1.822;2022-07-29T14:11:00;0.80;;;0.80;;
62543;SDS011;48597;49.030;1.822;2022-07-29T14:13:25;0.93;;;0.90;;
62543;SDS011;48597;49.030;1.822;2022-07-29T14:15:51;0.80;;;0.80;;
62543;SDS011;48597;49.030;1.822;2022-07-29T14:18:17;0.95;;;0.90;;
62543;SDS011;48597;49.030;1.822;2022-07-29T14:20:42;1.10;;;1.00;;
62543;SDS011;48597;49.030;1.822;2022-07-29T14:23:08;0.70;;;0.70;;
62543;SDS011;48597;49.030;1.822;2022-07-29T14:25:33;0.80;;;0.80;;
62543;SDS011;48597;49.030;1.822;2022-07-29T14:27:58;1.00;;;0.90;;
62543;SDS011;48597;49.030;1.822;2022-07-29T14:30:24;0.90;;;0.90;;
62543;SDS011;48597;49.030;1.822;2022-07-29T14:32:49;0.80;;;0.80;;
62543;SDS011;48597;49.030;1.822;2022-07-29T14:35:14;1.00;;;1.00;;
62543;SDS011;48597;49.030;1.822;2022-07-29T14:37:40;1.05;;;0.95;;
62543;SDS011;48597;49.030;1.822;2022-07-29T14:40:06;0.80;;;0.80;;
62543;SDS011;48597;49.030;1.822;2022-07-29T14:42:32;1.08;;;1.00;;
62543;SDS011;48597;49.030;1.822;2022-07-29T14:44:58;0.75;;;0.75;;
62543;SDS011;48597;49.030;1.822;2022-07-29T14:47:23;0.85;;;0.85;;
62543;SDS011;48597;49.030;1.822;2022-07-29T14:49:49;0.90;;;0.90;;
62543;SDS011;48597;49.030;1.822;2022-07-29T14:52:14;0.90;;;0.90;;
62543;SDS011;48597;49.030;1.822;2022-07-29T14:54:40;0.80;;;0.80;;
62543;SDS011;48597;49.030;1.822;2022-07-29T14:57:05;0.70;;;0.70;;
62543;SDS011;48597;49.030;1.822;2022-07-29T14:59:31;0.80;;;0.80;;
62543;SDS011;48597;49.030;1.822;2022-07-29T15:01:56;0.80;;;0.80;;
62543;SDS011;48597;49.030;1.822;2022-07-29T15:04:22;0.80;;;0.80;;
62543;SDS011;48597;49.030;1.822;2022-07-29T15:06:47;0.88;;;0.88;;
62543;SDS011;48597;49.030;1.822;2022-07-29T15:09:13;0.80;;;0.80;;
62543;SDS011;48597;49.030;1.822;2022-07-29T15:11:38;0.82;;;0.82;;
62543;SDS011;48597;49.030;1.822;2022-07-29T15:14:04;0.90;;;0.90;;
62543;SDS011;48597;49.030;1.822;2022-07-29T15:16:30;0.90;;;0.90;;
62543;SDS011;48597;49.030;1.822;2022-07-29T15:18:55;0.85;;;0.85;;
62543;SDS011;48597;49.030;1.822;2022-07-29T15:21:22;0.88;;;0.88;;
62543;SDS011;48597;49.030;1.822;2022-07-29T15:23:48;1.10;;;1.00;;
62543;SDS011;48597;49.030;1.822;2022-07-29T15:26:13;0.90;;;0.90;;
62543;SDS011;48597;49.030;1.822;2022-07-29T15:28:38;0.90;;;0.90;;
62543;SDS011;48597;49.030;1.822;2022-07-29T15:31:05;1.05;;;0.98;;
62543;SDS011;48597;49.030;1.822;2022-07-29T15:33:30;0.90;;;0.90;;
62543;SDS011;48597;49.030;1.822;2022-07-29T15:35:55;1.20;;;1.10;;
62543;SDS011;48597;49.030;1.822;2022-07-29T15:38:21;1.13;;;1.02;;
62543;SDS011;48597;49.030;1.822;2022-07-29T15:40:46;1.00;;;0.95;;
62543;SDS011;48597;49.030;1.822;2022-07-29T15:43:11;0.90;;;0.90;;